Time;durP1;ratioP1;P1;durP2;ratioP2;P2;SDS_P1;SDS_P2;PMS_P1;PMS_P2;Temp;Humidity;BMP_temperature;BMP_pressure;BME280_temperature;BME280_humidity;BME280_pressure;Samples;Min_cycle;Max_cycle;Signal;HPM_P1;HPM_P2
2021/11/26 00:01:32;;;;;;;9.20;7.43;;;5.40;99.90;;;;;;5032165;28;20210;-69
2021/11/26 00:04:00;;;;;;;8.70;6.13;;;5.40;99.90;;;;;;5032456;28;20201;-69
2021/11/26 00:06:26;;;;;;;9.93;5.70;;;5.40;99.90;;;;;;5031867;28;20434;-69
2021/11/26 00:08:52;;;;;;;5.33;4.80;;;5.40;99.90;;;;;;5032093;28;20912;-69
2021/11/26 00:11:17;;;;;;;8.70;5.20;;;5.40;99.90;;;;;;5032206;28;20419;-69
2021/11/26 00:13:48;;;;;;;6.50;4.50;;;5.40;99.90;;;;;;5032111;28;20632;-70
2021/11/26 00:16:18;;;;;;;6.17;4.60;;;5.40;99.90;;;;;;5031926;28;20283;-70
2021/11/26 00:18:49;;;;;;;9.37;5.27;;;5.30;99.90;;;;;;5032075;28;20418;-69
2021/11/26 00:21:15;;;;;;;7.40;3.40;;;5.30;99.90;;;;;;5032208;28;20397;-70
2021/11/26 00:23:41;;;;;;;10.53;5.93;;;5.40;99.90;;;;;;5032165;28;20489;-69
2021/11/26 00:26:06;;;;;;;6.97;3.93;;;5.40;99.90;;;;;;5031771;28;20237;-68
2021/11/26 00:28:35;;;;;;;10.60;5.70;;;5.40;99.90;;;;;;5031933;28;20858;-68
2021/11/26 00:31:00;;;;;;;4.30;3.03;;;5.40;99.90;;;;;;5031872;28;20255;-70
2021/11/26 00:33:26;;;;;;;16.13;4.70;;;5.30;99.90;;;;;;5031728;28;20489;-70
2021/11/26 00:35:54;;;;;;;12.80;6.70;;;5.30;99.90;;;;;;5031882;28;20261;-69
2021/11/26 00:38:19;;;;;;;8.13;5.00;;;5.30;99.90;;;;;;5030556;28;20552;-67
2021/11/26 00:40:45;;;;;;;6.13;4.90;;;5.40;99.90;;;;;;5031927;28;20403;-70
2021/11/26 00:43:11;;;;;;;6.87;4.07;;;5.40;99.90;;;;;;5031974;28;20453;-70
2021/11/26 00:45:37;;;;;;;11.70;4.30;;;5.40;99.90;;;;;;5031690;28;20446;-70
2021/11/26 00:48:02;;;;;;;13.57;6.50;;;5.40;99.90;;;;;;5031761;28;20176;-70
2021/11/26 00:50:29;;;;;;;7.13;4.20;;;5.30;99.90;;;;;;5031771;28;20202;-71
2021/11/26 00:52:55;;;;;;;6.80;5.13;;;5.30;99.90;;;;;;5031835;28;20168;-69
2021/11/26 00:55:21;;;;;;;8.70;5.43;;;5.30;99.90;;;;;;5041264;28;20494;-68
2021/11/26 00:57:46;;;;;;;5.37;4.47;;;5.30;99.90;;;;;;5051649;28;20174;-69
2021/11/26 01:00:14;;;;;;;6.00;4.77;;;5.40;99.90;;;;;;5051432;28;20416;-69
2021/11/26 01:02:41;;;;;;;7.80;3.90;;;5.30;99.90;;;;;;5030479;28;20168;-68
2021/11/26 01:05:08;;;;;;;7.33;5.00;;;5.30;99.90;;;;;;5021664;28;20502;-69
2021/11/26 01:07:34;;;;;;;8.97;5.13;;;5.30;99.90;;;;;;5031937;28;20819;-69
2021/11/26 01:10:00;;;;;;;5.07;3.43;;;5.30;99.90;;;;;;5031659;28;20489;-69
2021/11/26 01:12:26;;;;;;;5.60;4.67;;;5.20;99.90;;;;;;5031564;28;20648;-68
2021/11/26 01:14:52;;;;;;;6.60;4.53;;;5.20;99.90;;;;;;5031428;28;20406;-69
2021/11/26 01:17:17;;;;;;;7.73;3.73;;;5.30;99.90;;;;;;5031373;28;20206;-69
2021/11/26 01:19:45;;;;;;;7.37;3.80;;;5.30;99.90;;;;;;5031347;28;20803;-69
2021/11/26 01:22:11;;;;;;;7.50;3.63;;;5.30;99.90;;;;;;5031380;28;20638;-68
2021/11/26 01:24:37;;;;;;;5.50;4.30;;;5.30;99.90;;;;;;5031453;28;20438;-68
2021/11/26 01:27:06;;;;;;;5.40;4.23;;;5.40;99.90;;;;;;5031279;28;20500;-69
2021/11/26 01:29:32;;;;;;;7.73;4.60;;;5.40;99.90;;;;;;5031466;28;20247;-69
2021/11/26 01:31:58;;;;;;;12.50;5.50;;;5.40;99.90;;;;;;5031285;28;20426;-69
2021/11/26 01:34:23;;;;;;;6.07;4.97;;;5.30;99.90;;;;;;5031610;28;20410;-70
2021/11/26 01:36:50;;;;;;;5.07;4.07;;;5.40;99.90;;;;;;5031482;28;20234;-68
2021/11/26 01:39:16;;;;;;;7.30;5.17;;;5.30;99.90;;;;;;5031546;28;20180;-69
2021/11/26 01:41:43;;;;;;;9.03;5.93;;;5.60;99.90;;;;;;5031381;28;20403;-69
2021/11/26 01:44:09;;;;;;;15.43;4.70;;;5.40;99.90;;;;;;5031365;28;20490;-69
2021/11/26 01:46:43;;;;;;;5.90;3.77;;;5.40;99.90;;;;;;5031302;28;21015;-68
2021/11/26 01:49:10;;;;;;;5.10;4.70;;;5.30;99.90;;;;;;5031330;28;20745;-69
2021/11/26 01:51:36;;;;;;;8.47;3.37;;;5.30;99.90;;;;;;5031287;28;20441;-69
2021/11/26 01:54:02;;;;;;;7.53;4.20;;;5.40;99.90;;;;;;5031349;28;20417;-69
2021/11/26 01:56:28;;;;;;;16.30;4.90;;;5.30;99.90;;;;;;5032639;28;20489;-69
2021/11/26 01:58:54;;;;;;;7.10;4.27;;;5.30;99.90;;;;;;5033519;28;20421;-69
2021/11/26 02:01:26;;;;;;;7.73;5.63;;;5.30;99.90;;;;;;5033744;28;20203;-69
2021/11/26 02:03:53;;;;;;;4.17;2.80;;;5.30;99.90;;;;;;5032919;28;20418;-69
2021/11/26 02:06:18;;;;;;;5.03;4.53;;;5.30;99.90;;;;;;5035248;28;20448;-69
2021/11/26 02:08:44;;;;;;;9.50;5.20;;;5.30;99.90;;;;;;5036068;28;20406;-69
2021/11/26 02:11:10;;;;;;;9.20;4.27;;;5.30;99.90;;;;;;5035313;28;20865;-71
2021/11/26 02:13:36;;;;;;;7.77;4.90;;;5.20;99.90;;;;;;5035496;28;20457;-69
2021/11/26 02:16:04;;;;;;;5.80;5.10;;;5.30;99.90;;;;;;5035603;28;20208;-70
2021/11/26 02:18:30;;;;;;;6.30;3.67;;;5.30;99.90;;;;;;5035537;28;20425;-70
2021/11/26 02:20:56;;;;;;;6.27;4.20;;;5.30;99.90;;;;;;5035606;28;20391;-71
2021/11/26 02:23:21;;;;;;;10.70;3.27;;;5.30;99.90;;;;;;5035873;28;20409;-70
2021/11/26 02:25:47;;;;;;;7.63;3.53;;;5.40;99.90;;;;;;5035090;28;20190;-70
2021/11/26 02:28:15;;;;;;;11.60;4.73;;;5.40;99.90;;;;;;5036087;28;20167;-70
2021/11/26 02:30:41;;;;;;;5.27;4.77;;;5.30;99.90;;;;;;5033279;28;20176;-69
2021/11/26 02:33:18;;;;;;;6.03;5.13;;;5.20;99.90;;;;;;5034267;28;20469;-70
2021/11/26 02:35:47;;;;;;;4.40;3.47;;;5.30;99.90;;;;;;5034172;28;20449;-69
2021/11/26 02:38:14;;;;;;;5.80;3.87;;;5.30;99.90;;;;;;5034465;28;20401;-69
2021/11/26 02:40:41;;;;;;;5.03;4.53;;;5.30;99.90;;;;;;5032842;28;20414;-68
2021/11/26 02:43:09;;;;;;;13.13;5.13;;;5.30;99.90;;;;;;5032934;28;20425;-69
2021/11/26 02:45:35;;;;;;;8.33;5.57;;;5.30;99.90;;;;;;5033844;28;20936;-69
2021/11/26 02:48:02;;;;;;;4.30;3.43;;;5.20;99.90;;;;;;5034303;28;20430;-68
2021/11/26 02:50:28;;;;;;;6.73;4.67;;;5.20;99.90;;;;;;5033969;28;20398;-69
2021/11/26 02:52:55;;;;;;;6.07;3.30;;;5.20;99.90;;;;;;5034132;28;20460;-70
2021/11/26 02:55:24;;;;;;;9.67;6.90;;;5.20;99.90;;;;;;5033664;28;20505;-68
2021/11/26 02:57:51;;;;;;;6.33;3.30;;;5.20;99.90;;;;;;5033937;28;20433;-69
2021/11/26 03:00:20;;;;;;;5.57;3.27;;;5.20;99.90;;;;;;5031527;28;20920;-69
2021/11/26 03:02:45;;;;;;;7.10;5.20;;;5.30;99.90;;;;;;5034017;28;20927;-70
2021/11/26 03:05:11;;;;;;;10.13;4.60;;;5.30;99.90;;;;;;5033803;28;20398;-70
2021/11/26 03:07:37;;;;;;;6.40;4.67;;;5.30;99.90;;;;;;5032693;28;20243;-70
2021/11/26 03:10:05;;;;;;;13.40;5.00;;;5.30;99.90;;;;;;5033667;28;20492;-70
2021/11/26 03:12:31;;;;;;;12.70;4.70;;;5.30;99.90;;;;;;5033446;28;20413;-69
2021/11/26 03:14:57;;;;;;;7.20;4.93;;;5.20;99.90;;;;;;5033425;28;20443;-70
2021/11/26 03:17:24;;;;;;;10.33;6.57;;;5.30;99.90;;;;;;5033510;28;20536;-70
2021/11/26 03:19:50;;;;;;;8.37;4.43;;;5.30;99.90;;;;;;5033519;28;20172;-70
2021/11/26 03:22:16;;;;;;;9.10;6.47;;;5.30;99.90;;;;;;5032162;28;20448;-70
2021/11/26 03:24:41;;;;;;;9.07;3.73;;;5.30;99.90;;;;;;5033283;28;20793;-70
2021/11/26 03:27:07;;;;;;;6.53;3.73;;;5.30;99.90;;;;;;5033646;28;20532;-70
2021/11/26 03:29:32;;;;;;;7.27;4.13;;;5.30;99.90;;;;;;5033306;28;20168;-69
2021/11/26 03:31:58;;;;;;;5.70;4.17;;;5.30;99.90;;;;;;5033367;28;20638;-69
2021/11/26 03:34:24;;;;;;;7.30;3.47;;;5.30;99.90;;;;;;5033367;28;20168;-70
2021/11/26 03:36:50;;;;;;;11.50;4.37;;;5.30;99.90;;;;;;5033077;28;20261;-70
2021/11/26 03:39:16;;;;;;;6.40;4.43;;;5.30;99.90;;;;;;5033216;28;20403;-70
2021/11/26 03:41:42;;;;;;;5.70;3.83;;;5.30;99.90;;;;;;5033149;28;20164;-69
2021/11/26 03:44:08;;;;;;;6.70;4.30;;;5.30;99.90;;;;;;5033048;28;20160;-70
2021/11/26 03:46:34;;;;;;;5.80;3.70;;;5.30;99.90;;;;;;5031532;28;20215;-70
2021/11/26 03:48:59;;;;;;;4.53;3.77;;;5.30;99.90;;;;;;5032351;28;20780;-70
2021/11/26 03:51:26;;;;;;;10.17;4.43;;;5.30;99.90;;;;;;5031484;28;20172;-70
2021/11/26 03:53:52;;;;;;;8.17;4.77;;;5.30;99.90;;;;;;5032947;28;20187;-70
2021/11/26 03:56:17;;;;;;;4.43;4.03;;;5.20;99.90;;;;;;5032871;28;20811;-71
2021/11/26 03:58:43;;;;;;;7.30;5.77;;;5.30;99.90;;;;;;5032773;28;20163;-68
2021/11/26 04:01:08;;;;;;;4.93;4.43;;;5.20;99.90;;;;;;5032652;28;20171;-69
2021/11/26 04:03:34;;;;;;;7.17;4.40;;;5.20;99.90;;;;;;5032714;28;20168;-69
2021/11/26 04:06:00;;;;;;;11.10;5.67;;;5.20;99.90;;;;;;5032349;28;20183;-70
2021/11/26 04:08:25;;;;;;;4.70;4.27;;;5.20;99.90;;;;;;5032724;28;20255;-69
2021/11/26 04:10:51;;;;;;;6.13;4.70;;;5.20;99.90;;;;;;5032441;28;20187;-70
2021/11/26 04:13:18;;;;;;;8.77;3.50;;;5.30;99.90;;;;;;5032652;28;20199;-70
2021/11/26 04:15:44;;;;;;;5.50;3.83;;;5.20;99.90;;;;;;5032522;28;20290;-68
2021/11/26 04:18:11;;;;;;;6.13;4.07;;;5.30;99.90;;;;;;5032249;28;20517;-68
2021/11/26 04:20:38;;;;;;;5.80;4.27;;;5.30;99.90;;;;;;5032098;28;20824;-70
2021/11/26 04:23:04;;;;;;;7.10;4.00;;;5.30;99.90;;;;;;5032526;28;20402;-69
2021/11/26 04:25:30;;;;;;;11.83;5.60;;;5.30;99.90;;;;;;5032130;28;20509;-68
2021/11/26 04:27:57;;;;;;;6.37;3.67;;;5.30;99.90;;;;;;5032546;28;20414;-69
2021/11/26 04:30:25;;;;;;;5.03;4.17;;;5.20;99.90;;;;;;5032267;28;20413;-69
2021/11/26 04:32:51;;;;;;;4.10;3.07;;;5.20;99.90;;;;;;5032142;28;20432;-68
2021/11/26 04:35:17;;;;;;;8.73;3.73;;;5.20;99.90;;;;;;5030634;28;20444;-69
2021/11/26 04:37:43;;;;;;;10.13;6.20;;;5.20;99.90;;;;;;5032000;28;20544;-69
2021/11/26 04:40:11;;;;;;;9.13;3.77;;;5.20;99.90;;;;;;5031819;28;20545;-68
2021/11/26 04:42:38;;;;;;;5.13;4.03;;;5.20;99.90;;;;;;5032057;28;20191;-69
2021/11/26 04:45:06;;;;;;;6.70;3.50;;;5.30;99.90;;;;;;5031549;28;20403;-68
2021/11/26 04:47:32;;;;;;;4.53;3.70;;;5.10;99.90;;;;;;5031572;28;20414;-69
2021/11/26 04:49:58;;;;;;;5.03;3.40;;;5.20;99.90;;;;;;5031581;28;20398;-68
2021/11/26 04:52:24;;;;;;;4.17;3.13;;;5.20;99.90;;;;;;5031688;28;20441;-69
2021/11/26 04:54:49;;;;;;;4.33;2.77;;;5.20;99.90;;;;;;5031490;28;20402;-69
2021/11/26 04:57:15;;;;;;;4.70;3.00;;;5.20;99.90;;;;;;5031513;28;20227;-69
2021/11/26 04:59:41;;;;;;;3.03;2.30;;;5.10;99.90;;;;;;5031813;28;20172;-69
2021/11/26 05:02:06;;;;;;;4.23;3.70;;;5.10;99.90;;;;;;5031691;28;20198;-69
2021/11/26 05:04:32;;;;;;;6.07;3.27;;;5.20;99.90;;;;;;5031984;28;20195;-70
2021/11/26 05:07:00;;;;;;;7.93;3.37;;;5.20;99.90;;;;;;5031442;28;20187;-69
2021/11/26 05:09:26;;;;;;;6.80;3.67;;;5.20;99.90;;;;;;5031727;28;20179;-69
2021/11/26 05:11:54;;;;;;;7.10;5.23;;;5.20;99.90;;;;;;5031453;28;20774;-70
2021/11/26 05:14:20;;;;;;;2.90;2.47;;;5.20;99.90;;;;;;5031639;28;20198;-68
2021/11/26 05:16:46;;;;;;;5.40;3.07;;;5.20;99.90;;;;;;5031149;28;20454;-69
2021/11/26 05:19:11;;;;;;;10.73;3.87;;;5.20;99.90;;;;;;5031499;28;20475;-69
2021/11/26 05:21:37;;;;;;;11.00;4.10;;;5.30;99.90;;;;;;5031369;28;20229;-69
2021/11/26 05:24:03;;;;;;;4.03;2.93;;;5.20;99.90;;;;;;5031499;28;20171;-69
2021/11/26 05:26:28;;;;;;;6.77;4.10;;;5.20;99.90;;;;;;5031344;28;20199;-69
2021/11/26 05:28:54;;;;;;;3.87;2.97;;;5.30;99.90;;;;;;5031662;28;20213;-68
2021/11/26 05:31:21;;;;;;;3.03;2.80;;;5.20;99.90;;;;;;5033040;28;20179;-69
2021/11/26 05:33:47;;;;;;;7.83;4.60;;;5.30;99.90;;;;;;5035498;28;20174;-70
2021/11/26 05:36:13;;;;;;;5.73;3.80;;;5.20;99.90;;;;;;5035315;28;20548;-68
2021/11/26 05:38:39;;;;;;;7.77;3.80;;;5.20;99.90;;;;;;5035272;28;20833;-69
2021/11/26 05:41:04;;;;;;;5.57;3.07;;;5.20;99.90;;;;;;5035126;28;20322;-69
2021/11/26 05:43:30;;;;;;;9.80;4.77;;;5.20;99.90;;;;;;5035310;28;20166;-69
2021/11/26 05:45:55;;;;;;;5.53;4.60;;;5.30;99.90;;;;;;5035200;28;20678;-69
2021/11/26 05:48:21;;;;;;;4.43;2.40;;;5.30;99.90;;;;;;5035174;28;20171;-69
2021/11/26 05:50:47;;;;;;;5.43;3.63;;;5.20;99.90;;;;;;5034981;28;20179;-69
2021/11/26 05:53:13;;;;;;;5.20;3.20;;;5.30;99.90;;;;;;5035217;28;20394;-69
2021/11/26 05:55:39;;;;;;;6.17;4.70;;;5.30;99.90;;;;;;5034903;28;20209;-70
2021/11/26 05:58:06;;;;;;;5.00;4.17;;;5.20;99.90;;;;;;5034959;28;21015;-69
2021/11/26 06:00:32;;;;;;;5.30;2.77;;;5.30;99.90;;;;;;5034912;28;20413;-69
2021/11/26 06:02:59;;;;;;;8.67;4.23;;;5.30;99.90;;;;;;5034897;28;20414;-69
2021/11/26 06:05:25;;;;;;;8.40;3.60;;;5.30;99.90;;;;;;5034671;28;20437;-69
2021/11/26 06:07:52;;;;;;;6.33;3.67;;;5.30;99.90;;;;;;5034803;28;20897;-69
2021/11/26 06:10:18;;;;;;;6.03;2.83;;;5.30;99.90;;;;;;5034738;28;20406;-69
2021/11/26 06:12:46;;;;;;;4.10;2.80;;;5.20;99.90;;;;;;5034776;28;20398;-69
2021/11/26 06:15:13;;;;;;;8.37;4.80;;;5.30;99.90;;;;;;5034896;28;20168;-70
2021/11/26 06:17:40;;;;;;;15.37;4.17;;;5.20;99.90;;;;;;5034401;28;20469;-69
2021/11/26 06:20:07;;;;;;;7.80;4.27;;;5.20;99.90;;;;;;5034534;28;20418;-69
2021/11/26 06:22:32;;;;;;;6.43;3.73;;;5.20;99.90;;;;;;5034514;28;20420;-69
2021/11/26 06:24:58;;;;;;;7.43;5.53;;;5.20;99.90;;;;;;5034487;28;20975;-69
2021/11/26 06:27:24;;;;;;;7.60;4.50;;;5.20;99.90;;;;;;5034630;28;20201;-69
2021/11/26 06:29:50;;;;;;;5.80;3.87;;;5.30;99.90;;;;;;5034442;28;20163;-69
2021/11/26 06:32:16;;;;;;;6.60;3.70;;;5.40;99.90;;;;;;5034367;28;20406;-69
2021/11/26 06:34:42;;;;;;;5.70;3.97;;;5.60;99.90;;;;;;5034359;28;20167;-69
2021/11/26 06:37:07;;;;;;;12.87;6.00;;;5.80;99.90;;;;;;5034055;28;20453;-69
2021/11/26 06:39:33;;;;;;;4.90;4.00;;;5.60;99.90;;;;;;5034292;28;20415;-69
2021/11/26 06:41:59;;;;;;;4.33;3.30;;;5.60;99.90;;;;;;5034169;28;20164;-69
2021/11/26 06:44:25;;;;;;;9.30;5.87;;;5.90;99.90;;;;;;5034384;28;20229;-69
2021/11/26 06:46:56;;;;;;;4.50;3.60;;;5.80;99.90;;;;;;5033860;28;20191;-73
2021/11/26 06:49:22;;;;;;;6.63;5.77;;;5.80;99.90;;;;;;5034281;28;20455;-69
2021/11/26 06:51:47;;;;;;;10.07;5.20;;;6.10;99.90;;;;;;5033982;28;20410;-70
2021/11/26 06:54:13;;;;;;;7.10;3.30;;;5.80;99.90;;;;;;5034297;28;20186;-70
2021/11/26 06:56:38;;;;;;;6.37;3.33;;;5.50;99.90;;;;;;5033964;28;20199;-70
2021/11/26 06:59:04;;;;;;;7.00;4.00;;;5.70;99.90;;;;;;5033871;28;20164;-70
2021/11/26 07:01:30;;;;;;;6.07;3.47;;;5.60;99.90;;;;;;5034156;28;20171;-69
2021/11/26 07:03:56;;;;;;;5.47;2.80;;;5.60;99.90;;;;;;5034057;28;20230;-69
2021/11/26 07:06:22;;;;;;;3.90;2.53;;;5.50;99.90;;;;;;5033717;28;20933;-70
2021/11/26 07:08:48;;;;;;;5.90;3.53;;;5.70;99.90;;;;;;5033797;28;20172;-70
2021/11/26 07:11:13;;;;;;;4.77;2.27;;;5.80;99.90;;;;;;5033819;28;20182;-71
2021/11/26 07:13:39;;;;;;;4.77;2.97;;;5.70;99.90;;;;;;5033827;28;20441;-68
2021/11/26 07:16:05;;;;;;;3.53;2.60;;;5.70;99.90;;;;;;5033513;28;20286;-70
2021/11/26 07:18:31;;;;;;;5.03;3.30;;;5.80;99.90;;;;;;5033504;28;20274;-70
2021/11/26 07:20:56;;;;;;;7.03;3.50;;;5.80;99.90;;;;;;5033651;28;20233;-70
2021/11/26 07:23:22;;;;;;;6.10;3.57;;;5.50;99.90;;;;;;5033599;28;20601;-70
2021/11/26 07:25:48;;;;;;;6.30;2.87;;;5.60;99.90;;;;;;5032150;28;20619;-70
2021/11/26 07:28:14;;;;;;;5.90;3.87;;;6.30;99.90;;;;;;5033900;28;20258;-70
2021/11/26 07:30:39;;;;;;;5.57;3.83;;;6.00;99.90;;;;;;5033691;28;20195;-69
2021/11/26 07:33:07;;;;;;;6.20;4.20;;;5.90;99.90;;;;;;5034080;28;20183;-70
2021/11/26 07:35:32;;;;;;;9.17;3.13;;;6.10;99.90;;;;;;5033617;28;20296;-70
2021/11/26 07:37:58;;;;;;;8.57;5.00;;;6.00;99.90;;;;;;5033525;28;20438;-69
2021/11/26 07:40:24;;;;;;;4.00;3.10;;;5.80;99.90;;;;;;5033494;28;20172;-70
2021/11/26 07:42:49;;;;;;;4.30;3.10;;;5.60;99.90;;;;;;5033360;28;20553;-70
2021/11/26 07:45:15;;;;;;;6.53;4.07;;;5.90;99.90;;;;;;5033144;28;20163;-69
2021/11/26 07:47:42;;;;;;;2.97;2.20;;;6.10;99.90;;;;;;5033276;28;20168;-70
2021/11/26 07:50:08;;;;;;;8.00;3.87;;;5.90;99.90;;;;;;5033263;28;20819;-70
2021/11/26 07:52:35;;;;;;;3.07;2.77;;;6.00;99.90;;;;;;5033057;28;20523;-70
2021/11/26 07:55:01;;;;;;;4.20;2.57;;;5.80;99.90;;;;;;5032172;28;20406;-69
2021/11/26 07:57:27;;;;;;;3.53;3.20;;;5.70;99.90;;;;;;5032607;28;20454;-69
2021/11/26 07:59:53;;;;;;;4.77;2.60;;;6.00;99.90;;;;;;5032814;28;20460;-70
2021/11/26 08:02:18;;;;;;;4.70;3.23;;;5.90;99.90;;;;;;5032771;28;20172;-68
2021/11/26 08:04:44;;;;;;;4.83;3.77;;;5.50;99.90;;;;;;5032775;28;20214;-69
2021/11/26 08:07:10;;;;;;;5.80;5.13;;;5.60;99.90;;;;;;5032529;28;20223;-69
2021/11/26 08:09:36;;;;;;;8.27;4.40;;;5.60;99.90;;;;;;5032239;28;20198;-71
2021/11/26 08:12:02;;;;;;;9.80;4.63;;;5.50;99.90;;;;;;5032228;28;20544;-71
2021/11/26 08:14:28;;;;;;;12.07;4.43;;;5.30;99.90;;;;;;5032345;28;20411;-69
2021/11/26 08:16:54;;;;;;;8.17;4.13;;;5.50;99.90;;;;;;5032052;28;20465;-70
2021/11/26 08:19:22;;;;;;;4.87;4.30;;;5.50;99.90;;;;;;5036435;28;20191;-69
2021/11/26 08:21:52;;;;;;;7.70;5.03;;;5.60;99.90;;;;;;5042779;28;20511;-71
2021/11/26 08:24:18;;;;;;;11.73;3.87;;;5.60;99.90;;;;;;5020755;28;20434;-69
2021/11/26 08:26:45;;;;;;;9.07;3.27;;;5.50;99.90;;;;;;5023026;28;21353;-68
2021/11/26 08:29:11;;;;;;;5.40;4.20;;;5.50;99.90;;;;;;5030962;28;20414;-67
2021/11/26 08:31:37;;;;;;;6.50;3.10;;;5.60;99.90;;;;;;5030986;28;20418;-69
2021/11/26 08:34:04;;;;;;;7.83;3.17;;;5.70;99.90;;;;;;5030858;28;20415;-70
2021/11/26 08:36:30;;;;;;;3.20;2.90;;;5.70;99.90;;;;;;5030545;28;20516;-70
2021/11/26 08:38:56;;;;;;;6.73;4.03;;;5.80;99.90;;;;;;5030642;28;20453;-69
2021/11/26 08:41:23;;;;;;;5.40;4.10;;;5.70;99.90;;;;;;5029581;28;20172;-70
2021/11/26 08:43:49;;;;;;;5.93;3.93;;;5.70;99.90;;;;;;5031169;28;20921;-70
2021/11/26 08:46:15;;;;;;;5.47;3.80;;;5.80;99.90;;;;;;5030871;28;20476;-69
2021/11/26 08:48:41;;;;;;;8.00;3.30;;;5.80;99.90;;;;;;5030952;28;20442;-68
2021/11/26 08:51:08;;;;;;;6.57;4.47;;;5.90;99.90;;;;;;5030791;28;20428;-69
2021/11/26 08:53:36;;;;;;;9.80;3.73;;;5.90;99.90;;;;;;5030840;28;20211;-69
2021/11/26 08:56:02;;;;;;;5.50;3.53;;;5.90;99.90;;;;;;5034760;28;20504;-69
2021/11/26 08:58:29;;;;;;;5.80;3.17;;;5.90;99.90;;;;;;5031087;28;20414;-70
2021/11/26 09:00:55;;;;;;;6.03;3.67;;;6.00;99.90;;;;;;5030737;28;20438;-69
2021/11/26 09:03:21;;;;;;;4.67;2.23;;;6.10;99.90;;;;;;5030841;28;20434;-70
2021/11/26 09:05:47;;;;;;;4.63;3.03;;;6.20;99.90;;;;;;5029441;28;20191;-69
2021/11/26 09:08:15;;;;;;;6.50;3.40;;;6.00;99.90;;;;;;5030845;28;20463;-70
2021/11/26 09:10:44;;;;;;;6.40;2.90;;;6.00;99.90;;;;;;5031111;28;20207;-69
2021/11/26 09:13:10;;;;;;;7.97;3.47;;;6.20;99.90;;;;;;5031100;28;20413;-68
2021/11/26 09:15:37;;;;;;;5.73;3.00;;;6.20;99.90;;;;;;5030634;28;20422;-70
2021/11/26 09:18:03;;;;;;;7.43;5.10;;;6.20;99.90;;;;;;4993022;28;1150283;-68
2021/11/26 09:20:29;;;;;;;4.60;3.50;;;6.20;99.90;;;;;;5051173;28;20175;-69
2021/11/26 09:22:54;;;;;;;8.33;3.63;;;6.20;99.90;;;;;;5045651;28;20414;-69
2021/11/26 09:25:20;;;;;;;5.20;3.37;;;6.30;99.90;;;;;;5031327;28;20928;-68
2021/11/26 09:27:46;;;;;;;6.63;4.20;;;6.30;99.90;;;;;;5031389;28;20291;-68
2021/11/26 09:30:15;;;;;;;8.73;5.30;;;6.40;99.90;;;;;;5031402;28;20422;-70
2021/11/26 09:32:41;;;;;;;5.20;3.30;;;6.40;99.90;;;;;;5023577;28;20179;-69
2021/11/26 09:35:08;;;;;;;4.80;2.60;;;6.50;99.90;;;;;;5027886;28;20423;-69
2021/11/26 09:37:34;;;;;;;7.07;3.43;;;6.50;99.90;;;;;;5011556;28;20633;-69
2021/11/26 09:40:00;;;;;;;12.60;5.50;;;6.60;99.90;;;;;;5011394;28;20499;-71
2021/11/26 09:42:27;;;;;;;5.53;4.00;;;6.70;99.90;;;;;;5011582;28;20268;-69
2021/11/26 09:44:56;;;;;;;8.17;3.23;;;6.70;99.90;;;;;;5024866;28;20422;-69
2021/11/26 09:47:21;;;;;;;7.10;4.60;;;6.70;99.90;;;;;;5030090;28;20451;-69
2021/11/26 09:49:47;;;;;;;7.60;3.90;;;6.50;99.90;;;;;;5030665;28;20402;-69
2021/11/26 09:52:13;;;;;;;4.77;3.80;;;6.60;99.90;;;;;;5031013;28;20167;-70
2021/11/26 09:54:44;;;;;;;7.37;4.43;;;6.70;99.90;;;;;;5030354;28;20184;-69
2021/11/26 09:57:10;;;;;;;3.33;3.03;;;6.70;99.90;;;;;;5017889;28;20207;-70
2021/11/26 09:59:42;;;;;;;9.07;3.63;;;6.60;99.90;;;;;;5030884;28;20465;-70
2021/11/26 10:02:15;;;;;;;4.30;2.90;;;6.60;99.90;;;;;;5030756;28;20425;-69
2021/11/26 10:04:40;;;;;;;6.83;3.87;;;6.70;99.90;;;;;;5030690;28;20877;-70
2021/11/26 10:07:07;;;;;;;4.30;3.90;;;6.70;99.90;;;;;;5030512;28;20479;-70
2021/11/26 10:09:35;;;;;;;5.40;3.07;;;6.80;99.90;;;;;;5028961;28;20211;-70
2021/11/26 10:12:10;;;;;;;2.43;2.00;;;6.90;99.90;;;;;;5030945;28;20912;-70
2021/11/26 10:14:39;;;;;;;3.60;3.30;;;6.90;99.90;;;;;;5029722;28;21052;-71
2021/11/26 10:17:13;;;;;;;4.70;2.60;;;6.80;99.90;;;;;;5031525;28;20579;-70
2021/11/26 10:19:46;;;;;;;4.20;3.30;;;6.80;99.90;;;;;;5034208;28;20855;-70
2021/11/26 10:22:21;;;;;;;8.00;5.50;;;6.60;99.90;;;;;;5034634;28;20422;-70
2021/11/26 10:25:15;;;;;;;4.27;3.23;;;6.60;99.90;;;;;;5034298;28;20463;-70
2021/11/26 10:27:46;;;;;;;3.43;2.70;;;6.80;99.90;;;;;;5035536;28;20434;-70
2021/11/26 10:30:19;;;;;;;4.33;2.93;;;6.90;99.90;;;;;;5037040;28;20735;-72
2021/11/26 10:33:17;;;;;;;4.80;2.63;;;6.90;99.90;;;;;;5033997;28;20882;-71
2021/11/26 10:36:00;;;;;;;6.13;4.50;;;6.90;99.90;;;;;;5033516;28;20480;-75
2021/11/26 10:38:29;;;;;;;8.03;3.27;;;6.60;99.90;;;;;;5034754;28;20948;-71
2021/11/26 10:40:59;;;;;;;4.57;3.80;;;6.60;99.90;;;;;;5033973;28;20414;-72
2021/11/26 10:43:51;;;;;;;10.83;5.73;;;6.90;99.90;;;;;;5033948;28;20407;-73
2021/11/26 10:49:20;;;;;;;7.87;3.90;;;7.00;99.90;;;;;;5034090;28;20394;-72
2021/11/26 10:52:07;;;;;;;6.40;3.53;;;7.00;99.90;;;;;;5033518;28;20410;-72
2021/11/26 11:00:15;;;;;;;12.77;5.70;;;7.00;99.90;;;;;;5033966;28;20476;-71
2021/11/26 11:02:43;;;;;;;8.37;5.10;;;6.90;99.90;;;;;;5033502;28;20413;-71
2021/11/26 11:05:31;;;;;;;9.87;5.63;;;6.90;99.90;;;;;;5033692;28;20499;-72
2021/11/26 11:07:59;;;;;;;9.97;5.00;;;7.00;99.90;;;;;;5023845;28;20850;-73
2021/11/26 11:10:30;;;;;;;4.73;4.27;;;6.80;99.90;;;;;;5015680;28;20451;-72
2021/11/26 11:13:12;;;;;;;4.80;4.30;;;7.00;99.90;;;;;;5012280;28;20508;-71
2021/11/26 11:15:39;;;;;;;7.10;4.87;;;7.00;99.90;;;;;;5013497;28;20448;-72
2021/11/26 11:18:05;;;;;;;9.47;5.87;;;7.00;99.90;;;;;;5013584;28;20499;-70
2021/11/26 11:20:34;;;;;;;8.10;4.17;;;6.80;99.90;;;;;;5013601;28;20407;-72
2021/11/26 11:22:59;;;;;;;7.53;3.60;;;6.80;99.90;;;;;;5013528;28;20494;-72
2021/11/26 11:25:28;;;;;;;8.53;5.63;;;6.90;99.90;;;;;;5031252;28;20505;-72
2021/11/26 11:27:56;;;;;;;6.47;4.07;;;6.90;99.90;;;;;;5032867;28;20176;-71
2021/11/26 11:30:21;;;;;;;6.60;4.03;;;6.90;99.90;;;;;;5032421;28;20415;-71
2021/11/26 11:32:47;;;;;;;9.40;5.73;;;7.10;99.90;;;;;;5033024;28;20490;-71
2021/11/26 11:35:14;;;;;;;7.97;4.80;;;7.00;99.90;;;;;;5031465;28;20188;-72
2021/11/26 11:37:40;;;;;;;10.00;4.67;;;7.20;99.90;;;;;;5032787;28;20459;-71
2021/11/26 11:40:08;;;;;;;9.67;6.43;;;7.20;99.90;;;;;;5032716;28;20411;-71
2021/11/26 11:42:40;;;;;;;7.43;4.13;;;7.10;99.90;;;;;;5033233;28;20403;-72
2021/11/26 11:45:18;;;;;;;9.00;4.40;;;7.00;99.90;;;;;;5033011;28;20425;-72
2021/11/26 11:47:47;;;;;;;13.70;6.13;;;7.00;99.90;;;;;;5033152;28;20411;-71
2021/11/26 11:50:13;;;;;;;10.03;4.80;;;6.80;99.90;;;;;;5032686;28;20414;-71
2021/11/26 11:53:02;;;;;;;10.30;5.10;;;6.80;99.90;;;;;;5032637;28;20415;-71
2021/11/26 11:55:38;;;;;;;4.80;3.67;;;7.10;99.90;;;;;;5029432;28;20238;-71
2021/11/26 11:58:17;;;;;;;9.60;4.40;;;7.30;99.90;;;;;;5032898;28;20461;-71
2021/11/26 12:00:46;;;;;;;7.20;4.90;;;7.60;99.90;;;;;;5033232;28;20434;-72
2021/11/26 12:03:16;;;;;;;9.20;6.30;;;7.50;99.90;;;;;;5033446;28;20445;-71
2021/11/26 12:05:53;;;;;;;7.67;4.80;;;7.20;99.90;;;;;;5033338;28;20429;-72
2021/11/26 12:08:19;;;;;;;6.87;4.80;;;7.20;99.90;;;;;;5024364;28;20422;-71
2021/11/26 12:10:52;;;;;;;7.53;5.33;;;7.20;99.90;;;;;;5032456;28;20408;-72
2021/11/26 12:13:28;;;;;;;10.77;7.37;;;7.20;99.90;;;;;;5032736;28;20183;-72
2021/11/26 12:16:15;;;;;;;6.90;4.10;;;7.10;99.90;;;;;;5032251;28;20462;-72
2021/11/26 12:18:50;;;;;;;6.70;4.70;;;7.10;99.90;;;;;;5032496;28;20483;-72
2021/11/26 12:21:22;;;;;;;7.27;4.60;;;7.10;99.90;;;;;;5032640;28;20409;-71
2021/11/26 12:24:18;;;;;;;8.10;5.20;;;7.10;99.90;;;;;;5037246;28;20412;-71
2021/11/26 12:29:21;;;;;;;9.90;5.37;;;7.30;99.90;;;;;;5052585;28;20772;-72
2021/11/26 12:31:48;;;;;;;6.97;4.87;;;7.10;99.90;;;;;;5028008;28;20565;-72
2021/11/26 12:34:20;;;;;;;8.27;4.50;;;7.10;99.90;;;;;;5012477;28;20412;-71
2021/11/26 12:36:52;;;;;;;9.23;5.17;;;7.20;99.90;;;;;;5012511;28;20455;-72
2021/11/26 12:39:24;;;;;;;9.67;6.10;;;7.20;99.90;;;;;;5012705;28;20404;-72
2021/11/26 12:41:54;;;;;;;10.53;5.60;;;7.30;99.90;;;;;;5012525;28;20495;-72
2021/11/26 12:44:25;;;;;;;5.33;3.73;;;7.20;99.90;;;;;;5012626;28;20910;-73
2021/11/26 12:46:56;;;;;;;6.87;4.10;;;7.10;99.90;;;;;;5012983;28;20481;-74
2021/11/26 12:51:59;;;;;;;5.87;4.43;;;7.00;99.90;;;;;;5013035;28;20421;-72
2021/11/26 12:54:29;;;;;;;10.40;5.33;;;7.10;99.90;;;;;;5023706;28;20893;-71
2021/11/26 12:56:57;;;;;;;10.63;4.60;;;6.90;99.90;;;;;;5039917;28;20895;-72
2021/11/26 12:59:44;;;;;;;12.83;6.70;;;6.80;99.90;;;;;;5039592;28;20404;-71
2021/11/26 13:02:17;;;;;;;9.63;5.10;;;6.80;99.90;;;;;;5040106;28;20433;-72
2021/11/26 13:04:51;;;;;;;8.10;4.63;;;6.80;99.90;;;;;;5039258;28;20430;-72
2021/11/26 13:07:25;;;;;;;15.00;4.20;;;6.90;99.90;;;;;;5040529;28;20433;-73
2021/11/26 13:09:56;;;;;;;6.60;4.43;;;7.00;99.90;;;;;;5032734;28;20517;-72
2021/11/26 13:12:49;;;;;;;7.63;4.70;;;7.00;99.90;;;;;;5042212;28;20413;-72